sensor_id;sensor_type;location;lat;lon;timestamp;pressure;altitude;pressure_sealevel;temperature
12854;BMP180;6495;51.808;7.478;2023-11-21T00:01:04;100474.00;;;8.80
12854;BMP180;6495;51.808;7.478;2023-11-21T00:03:36;100481.00;;;8.80
12854;BMP180;6495;51.808;7.478;2023-11-21T00:06:06;100488.00;;;8.80
12854;BMP180;6495;51.808;7.478;2023-11-21T00:08:37;100482.00;;;8.80
12854;BMP180;6495;51.808;7.478;2023-11-21T00:11:06;100472.00;;;8.80
12854;BMP180;6495;51.808;7.478;2023-11-21T00:13:36;100480.00;;;8.80
12854;BMP180;6495;51.808;7.478;2023-11-21T00:16:05;100481.00;;;8.90
12854;BMP180;6495;51.808;7.478;2023-11-21T00:18:35;100483.00;;;8.90
12854;BMP180;6495;51.808;7.478;2023-11-21T00:21:03;100486.00;;;8.90
12854;BMP180;6495;51.808;7.478;2023-11-21T00:23:32;100487.00;;;8.90
12854;BMP180;6495;51.808;7.478;2023-11-21T00:26:01;100500.00;;;8.90
12854;BMP180;6495;51.808;7.478;2023-11-21T00:28:31;100505.00;;;8.90
12854;BMP180;6495;51.808;7.478;2023-11-21T00:31:01;100497.00;;;8.90
12854;BMP180;6495;51.808;7.478;2023-11-21T00:33:31;100502.00;;;8.90
12854;BMP180;6495;51.808;7.478;2023-11-21T00:36:01;100508.00;;;8.90
12854;BMP180;6495;51.808;7.478;2023-11-21T00:38:32;100498.00;;;8.90
12854;BMP180;6495;51.808;7.478;2023-11-21T00:41:01;100499.00;;;8.90
12854;BMP180;6495;51.808;7.478;2023-11-21T00:43:30;100508.00;;;8.90
12854;BMP180;6495;51.808;7.478;2023-11-21T00:46:04;100492.00;;;8.90
12854;BMP180;6495;51.808;7.478;2023-11-21T00:48:34;100494.00;;;8.90
12854;BMP180;6495;51.808;7.478;2023-11-21T00:51:03;100497.00;;;8.90
12854;BMP180;6495;51.808;7.478;2023-11-21T00:53:33;100495.00;;;8.90
12854;BMP180;6495;51.808;7.478;2023-11-21T00:56:02;100503.00;;;8.90
12854;BMP180;6495;51.808;7.478;2023-11-21T00:58:30;100498.00;;;8.90
12854;BMP180;6495;51.808;7.478;2023-11-21T01:00:59;100502.00;;;8.90
12854;BMP180;6495;51.808;7.478;2023-11-21T01:03:29;100519.00;;;9.00
12854;BMP180;6495;51.808;7.478;2023-11-21T01:05:58;100511.00;;;8.90
12854;BMP180;6495;51.808;7.478;2023-11-21T01:08:27;100514.00;;;8.90
12854;BMP180;6495;51.808;7.478;2023-11-21T01:10:56;100512.00;;;8.90
12854;BMP180;6495;51.808;7.478;2023-11-21T01:13:26;100519.00;;;8.90
12854;BMP180;6495;51.808;7.478;2023-11-21T01:15:57;100520.00;;;8.90
12854;BMP180;6495;51.808;7.478;2023-11-21T01:18:26;100520.00;;;8.90
12854;BMP180;6495;51.808;7.478;2023-11-21T01:20:58;100517.00;;;8.90
12854;BMP180;6495;51.808;7.478;2023-11-21T01:23:27;100518.00;;;8.90
12854;BMP180;6495;51.808;7.478;2023-11-21T01:25:56;100515.00;;;8.90
12854;BMP180;6495;51.808;7.478;2023-11-21T01:28:25;100522.00;;;8.90
12854;BMP180;6495;51.808;7.478;2023-11-21T01:30:55;100529.00;;;8.90
12854;BMP180;6495;51.808;7.478;2023-11-21T01:33:24;100532.00;;;9.00
12854;BMP180;6495;51.808;7.478;2023-11-21T01:35:54;100536.00;;;8.90
12854;BMP180;6495;51.808;7.478;2023-11-21T01:38:24;100532.00;;;9.00
12854;BMP180;6495;51.808;7.478;2023-11-21T01:40:53;100532.00;;;9.00
12854;BMP180;6495;51.808;7.478;2023-11-21T01:43:22;100533.00;;;9.00
12854;BMP180;6495;51.808;7.478;2023-11-21T01:45:51;100532.00;;;9.00
12854;BMP180;6495;51.808;7.478;2023-11-21T01:48:20;100529.00;;;9.00
12854;BMP180;6495;51.808;7.478;2023-11-21T01:50:49;100529.00;;;9.00
12854;BMP180;6495;51.808;7.478;2023-11-21T01:53:18;100539.00;;;9.00
12854;BMP180;6495;51.808;7.478;2023-11-21T01:55:51;100531.00;;;9.00
12854;BMP180;6495;51.808;7.478;2023-11-21T01:58:26;100540.00;;;9.00
12854;BMP180;6495;51.808;7.478;2023-11-21T02:00:55;100541.00;;;8.90
12854;BMP180;6495;51.808;7.478;2023-11-21T02:03:24;100537.00;;;8.90
12854;BMP180;6495;51.808;7.478;2023-11-21T02:05:54;100543.00;;;9.00
12854;BMP180;6495;51.808;7.478;2023-11-21T02:08:23;100551.00;;;8.90
12854;BMP180;6495;51.808;7.478;2023-11-21T02:10:53;100552.00;;;8.90
12854;BMP180;6495;51.808;7.478;2023-11-21T02:13:22;100556.00;;;8.90
12854;BMP180;6495;51.808;7.478;2023-11-21T02:15:52;100561.00;;;8.90
12854;BMP180;6495;51.808;7.478;2023-11-21T02:18:21;100568.00;;;8.90
12854;BMP180;6495;51.808;7.478;2023-11-21T02:20:50;100567.00;;;8.90
12854;BMP180;6495;51.808;7.478;2023-11-21T02:23:20;100572.00;;;8.90
12854;BMP180;6495;51.808;7.478;2023-11-21T02:25:50;100567.00;;;8.90
12854;BMP180;6495;51.808;7.478;2023-11-21T02:28:19;100564.00;;;8.90
12854;BMP180;6495;51.808;7.478;2023-11-21T02:30:53;100580.00;;;8.90
12854;BMP180;6495;51.808;7.478;2023-11-21T02:33:25;100579.00;;;8.90
12854;BMP180;6495;51.808;7.478;2023-11-21T02:35:54;100586.00;;;8.90
12854;BMP180;6495;51.808;7.478;2023-11-21T02:38:24;100571.00;;;8.90
12854;BMP180;6495;51.808;7.478;2023-11-21T02:40:53;100582.00;;;8.90
12854;BMP180;6495;51.808;7.478;2023-11-21T02:43:22;100588.00;;;8.80
12854;BMP180;6495;51.808;7.478;2023-11-21T02:45:51;100589.00;;;8.80
12854;BMP180;6495;51.808;7.478;2023-11-21T02:48:20;100576.00;;;8.80
12854;BMP180;6495;51.808;7.478;2023-11-21T02:51:11;100586.00;;;8.80
12854;BMP180;6495;51.808;7.478;2023-11-21T02:53:41;100582.00;;;8.80
12854;BMP180;6495;51.808;7.478;2023-11-21T02:56:10;100588.00;;;8.70
12854;BMP180;6495;51.808;7.478;2023-11-21T02:58:42;100595.00;;;8.70
12854;BMP180;6495;51.808;7.478;2023-11-21T03:01:13;100588.00;;;8.70
12854;BMP180;6495;51.808;7.478;2023-11-21T03:03:42;100586.00;;;8.60
12854;BMP180;6495;51.808;7.478;2023-11-21T03:06:11;100593.00;;;8.60
12854;BMP180;6495;51.808;7.478;2023-11-21T03:08:42;100600.00;;;8.60
12854;BMP180;6495;51.808;7.478;2023-11-21T03:11:10;100596.00;;;8.60
12854;BMP180;6495;51.808;7.478;2023-11-21T03:13:40;100601.00;;;8.60
12854;BMP180;6495;51.808;7.478;2023-11-21T03:16:10;100600.00;;;8.60
12854;BMP180;6495;51.808;7.478;2023-11-21T03:18:40;100596.00;;;8.60
12854;BMP180;6495;51.808;7.478;2023-11-21T03:21:09;100597.00;;;8.60
12854;BMP180;6495;51.808;7.478;2023-11-21T03:23:38;100601.00;;;8.50
12854;BMP180;6495;51.808;7.478;2023-11-21T03:26:12;100600.00;;;8.50
12854;BMP180;6495;51.808;7.478;2023-11-21T03:28:41;100605.00;;;8.50
12854;BMP180;6495;51.808;7.478;2023-11-21T03:31:10;100598.00;;;8.50
12854;BMP180;6495;51.808;7.478;2023-11-21T03:33:39;100615.00;;;8.50
12854;BMP180;6495;51.808;7.478;2023-11-21T03:36:09;100620.00;;;8.50
12854;BMP180;6495;51.808;7.478;2023-11-21T03:38:38;100622.00;;;8.50
12854;BMP180;6495;51.808;7.478;2023-11-21T03:41:08;100624.00;;;8.50
12854;BMP180;6495;51.808;7.478;2023-11-21T03:43:38;100628.00;;;8.50
12854;BMP180;6495;51.808;7.478;2023-11-21T03:46:07;100626.00;;;8.50
12854;BMP180;6495;51.808;7.478;2023-11-21T03:48:36;100630.00;;;8.50
12854;BMP180;6495;51.808;7.478;2023-11-21T03:51:05;100645.00;;;8.60
12854;BMP180;6495;51.808;7.478;2023-11-21T03:53:34;100639.00;;;8.60
12854;BMP180;6495;51.808;7.478;2023-11-21T03:56:04;100654.00;;;8.60
12854;BMP180;6495;51.808;7.478;2023-11-21T03:58:36;100659.00;;;8.60
12854;BMP180;6495;51.808;7.478;2023-11-21T04:01:05;100662.00;;;8.60
12854;BMP180;6495;51.808;7.478;2023-11-21T04:03:35;100655.00;;;8.60
12854;BMP180;6495;51.808;7.478;2023-11-21T04:06:04;100657.00;;;8.60
12854;BMP180;6495;51.808;7.478;2023-11-21T04:08:33;100655.00;;;8.60
12854;BMP180;6495;51.808;7.478;2023-11-21T04:11:02;100660.00;;;8.70
12854;BMP180;6495;51.808;7.478;2023-11-21T04:13:31;100658.00;;;8.70
12854;BMP180;6495;51.808;7.478;2023-11-21T04:16:02;100662.00;;;8.70
12854;BMP180;6495;51.808;7.478;2023-11-21T04:18:30;100658.00;;;8.70
12854;BMP180;6495;51.808;7.478;2023-11-21T04:20:59;100658.00;;;8.70
12854;BMP180;6495;51.808;7.478;2023-11-21T04:23:29;100658.00;;;8.70
12854;BMP180;6495;51.808;7.478;2023-11-21T04:25:59;100656.00;;;8.70
12854;BMP180;6495;51.808;7.478;2023-11-21T04:28:29;100652.00;;;8.70
12854;BMP180;6495;51.808;7.478;2023-11-21T04:30:58;100653.00;;;8.60
12854;BMP180;6495;51.808;7.478;2023-11-21T04:33:28;100656.00;;;8.60
12854;BMP180;6495;51.808;7.478;2023-11-21T04:35:57;100646.00;;;8.60
12854;BMP180;6495;51.808;7.478;2023-11-21T04:38:26;100655.00;;;8.50
12854;BMP180;6495;51.808;7.478;2023-11-21T04:40:54;100660.00;;;8.50
12854;BMP180;6495;51.808;7.478;2023-11-21T04:43:26;100658.00;;;8.60
12854;BMP180;6495;51.808;7.478;2023-11-21T04:45:55;100661.00;;;8.60
12854;BMP180;6495;51.808;7.478;2023-11-21T04:48:24;100664.00;;;8.60
12854;BMP180;6495;51.808;7.478;2023-11-21T04:50:56;100665.00;;;8.60
12854;BMP180;6495;51.808;7.478;2023-11-21T04:53:25;100674.00;;;8.60
12854;BMP180;6495;51.808;7.478;2023-11-21T04:55:54;100682.00;;;8.60
12854;BMP180;6495;51.808;7.478;2023-11-21T04:58:22;100679.00;;;8.60
12854;BMP180;6495;51.808;7.478;2023-11-21T05:00:51;100687.00;;;8.60
12854;BMP180;6495;51.808;7.478;2023-11-21T05:03:20;100683.00;;;8.60
12854;BMP180;6495;51.808;7.478;2023-11-21T05:05:51;100684.00;;;8.60
12854;BMP180;6495;51.808;7.478;2023-11-21T05:08:21;100685.00;;;8.60
12854;BMP180;6495;51.808;7.478;2023-11-21T05:10:50;100696.00;;;8.60
12854;BMP180;6495;51.808;7.478;2023-11-21T05:13:20;100693.00;;;8.60
12854;BMP180;6495;51.808;7.478;2023-11-21T05:15:50;100693.00;;;8.60
12854;BMP180;6495;51.808;7.478;2023-11-21T05:18:24;100702.00;;;8.60
12854;BMP180;6495;51.808;7.478;2023-11-21T05:20:58;100700.00;;;8.70
12854;BMP180;6495;51.808;7.478;2023-11-21T05:23:35;100702.00;;;8.70
12854;BMP180;6495;51.808;7.478;2023-11-21T05:28:57;100712.00;;;8.70
12854;BMP180;6495;51.808;7.478;2023-11-21T05:31:26;100705.00;;;8.70
12854;BMP180;6495;51.808;7.478;2023-11-21T05:33:56;100720.00;;;8.70
12854;BMP180;6495;51.808;7.478;2023-11-21T05:36:24;100716.00;;;8.70
12854;BMP180;6495;51.808;7.478;2023-11-21T05:38:56;100716.00;;;8.70
12854;BMP180;6495;51.808;7.478;2023-11-21T05:41:25;100720.00;;;8.70
12854;BMP180;6495;51.808;7.478;2023-11-21T05:43:54;100730.00;;;8.70
12854;BMP180;6495;51.808;7.478;2023-11-21T05:46:22;100730.00;;;8.70
12854;BMP180;6495;51.808;7.478;2023-11-21T05:48:51;100735.00;;;8.70
12854;BMP180;6495;51.808;7.478;2023-11-21T05:51:19;100734.00;;;8.70
12854;BMP180;6495;51.808;7.478;2023-11-21T05:53:48;100743.00;;;8.80
12854;BMP180;6495;51.808;7.478;2023-11-21T05:56:18;100743.00;;;8.80
12854;BMP180;6495;51.808;7.478;2023-11-21T05:58:46;100744.00;;;8.80
12854;BMP180;6495;51.808;7.478;2023-11-21T06:01:15;100742.00;;;8.80
12854;BMP180;6495;51.808;7.478;2023-11-21T06:03:43;100750.00;;;8.80
12854;BMP180;6495;51.808;7.478;2023-11-21T06:06:13;100761.00;;;8.80
12854;BMP180;6495;51.808;7.478;2023-11-21T06:08:41;100760.00;;;8.80
12854;BMP180;6495;51.808;7.478;2023-11-21T06:11:10;100760.00;;;8.80
12854;BMP180;6495;51.808;7.478;2023-11-21T06:13:40;100767.00;;;8.90
12854;BMP180;6495;51.808;7.478;2023-11-21T06:16:09;100768.00;;;8.80
12854;BMP180;6495;51.808;7.478;2023-11-21T06:18:37;100771.00;;;8.80
12854;BMP180;6495;51.808;7.478;2023-11-21T06:21:09;100778.00;;;8.80
12854;BMP180;6495;51.808;7.478;2023-11-21T06:23:37;100789.00;;;8.80
12854;BMP180;6495;51.808;7.478;2023-11-21T06:26:06;100789.00;;;8.80
12854;BMP180;6495;51.808;7.478;2023-11-21T06:28:36;100796.00;;;8.80
12854;BMP180;6495;51.808;7.478;2023-11-21T06:31:06;100795.00;;;8.80
12854;BMP180;6495;51.808;7.478;2023-11-21T06:33:34;100805.00;;;8.80
12854;BMP180;6495;51.808;7.478;2023-11-21T06:36:03;100807.00;;;8.80
12854;BMP180;6495;51.808;7.478;2023-11-21T06:38:33;100808.00;;;8.90
12854;BMP180;6495;51.808;7.478;2023-11-21T06:41:01;100816.00;;;8.90
12854;BMP180;6495;51.808;7.478;2023-11-21T06:43:31;100827.00;;;8.90
12854;BMP180;6495;51.808;7.478;2023-11-21T06:46:00;100826.00;;;8.90
12854;BMP180;6495;51.808;7.478;2023-11-21T06:48:30;100822.00;;;8.90
12854;BMP180;6495;51.808;7.478;2023-11-21T06:50:58;100821.00;;;8.90
12854;BMP180;6495;51.808;7.478;2023-11-21T06:53:27;100819.00;;;8.90
12854;BMP180;6495;51.808;7.478;2023-11-21T06:55:55;100823.00;;;8.90
12854;BMP180;6495;51.808;7.478;2023-11-21T06:58:24;100823.00;;;9.00
12854;BMP180;6495;51.808;7.478;2023-11-21T07:00:52;100825.00;;;9.00
12854;BMP180;6495;51.808;7.478;2023-11-21T07:03:22;100830.00;;;9.00
12854;BMP180;6495;51.808;7.478;2023-11-21T07:05:54;100835.00;;;9.00
12854;BMP180;6495;51.808;7.478;2023-11-21T07:08:23;100847.00;;;9.00
12854;BMP180;6495;51.808;7.478;2023-11-21T07:10:51;100850.00;;;9.00
12854;BMP180;6495;51.808;7.478;2023-11-21T07:13:20;100855.00;;;9.00
12854;BMP180;6495;51.808;7.478;2023-11-21T07:15:49;100851.00;;;9.00
12854;BMP180;6495;51.808;7.478;2023-11-21T07:18:18;100853.00;;;9.00
12854;BMP180;6495;51.808;7.478;2023-11-21T07:20:46;100857.00;;;9.10
12854;BMP180;6495;51.808;7.478;2023-11-21T07:23:16;100856.00;;;9.10
12854;BMP180;6495;51.808;7.478;2023-11-21T07:25:45;100865.00;;;9.10
12854;BMP180;6495;51.808;7.478;2023-11-21T07:28:14;100865.00;;;9.10
12854;BMP180;6495;51.808;7.478;2023-11-21T07:30:42;100863.00;;;9.10
12854;BMP180;6495;51.808;7.478;2023-11-21T07:33:11;100873.00;;;9.10
12854;BMP180;6495;51.808;7.478;2023-11-21T07:35:39;100872.00;;;9.10
12854;BMP180;6495;51.808;7.478;2023-11-21T07:38:09;100879.00;;;9.10
12854;BMP180;6495;51.808;7.478;2023-11-21T07:40:38;100880.00;;;9.10
12854;BMP180;6495;51.808;7.478;2023-11-21T07:43:07;100891.00;;;9.10
12854;BMP180;6495;51.808;7.478;2023-11-21T07:45:36;100891.00;;;9.20
12854;BMP180;6495;51.808;7.478;2023-11-21T07:48:05;100895.00;;;9.20
12854;BMP180;6495;51.808;7.478;2023-11-21T07:50:33;100895.00;;;9.20
12854;BMP180;6495;51.808;7.478;2023-11-21T07:53:02;100894.00;;;9.10
12854;BMP180;6495;51.808;7.478;2023-11-21T07:55:32;100899.00;;;9.10
12854;BMP180;6495;51.808;7.478;2023-11-21T07:58:02;100900.00;;;9.20
12854;BMP180;6495;51.808;7.478;2023-11-21T08:00:32;100906.00;;;9.20
12854;BMP180;6495;51.808;7.478;2023-11-21T08:03:02;100907.00;;;9.20
12854;BMP180;6495;51.808;7.478;2023-11-21T08:05:30;100924.00;;;9.20
12854;BMP180;6495;51.808;7.478;2023-11-21T08:08:04;100924.00;;;9.20
12854;BMP180;6495;51.808;7.478;2023-11-21T08:10:33;100933.00;;;9.20
12854;BMP180;6495;51.808;7.478;2023-11-21T08:13:04;100934.00;;;9.10
12854;BMP180;6495;51.808;7.478;2023-11-21T08:15:33;100935.00;;;9.10
12854;BMP180;6495;51.808;7.478;2023-11-21T08:18:03;100942.00;;;9.10
12854;BMP180;6495;51.808;7.478;2023-11-21T08:20:31;100948.00;;;9.00
12854;BMP180;6495;51.808;7.478;2023-11-21T08:23:00;100951.00;;;9.10
12854;BMP180;6495;51.808;7.478;2023-11-21T08:25:54;100957.00;;;9.10
12854;BMP180;6495;51.808;7.478;2023-11-21T08:28:48;100965.00;;;9.10
12854;BMP180;6495;51.808;7.478;2023-11-21T08:31:34;100969.00;;;9.00
12854;BMP180;6495;51.808;7.478;2023-11-21T08:34:34;100973.00;;;9.00
12854;BMP180;6495;51.808;7.478;2023-11-21T08:37:15;100973.00;;;9.00
12854;BMP180;6495;51.808;7.478;2023-11-21T08:39:44;100966.00;;;9.00
12854;BMP180;6495;51.808;7.478;2023-11-21T08:42:14;100974.00;;;9.00
12854;BMP180;6495;51.808;7.478;2023-11-21T08:44:43;100980.00;;;9.00
12854;BMP180;6495;51.808;7.478;2023-11-21T08:47:15;100982.00;;;9.00
12854;BMP180;6495;51.808;7.478;2023-11-21T08:49:43;100974.00;;;9.10
12854;BMP180;6495;51.808;7.478;2023-11-21T08:52:13;100973.00;;;9.10
12854;BMP180;6495;51.808;7.478;2023-11-21T08:54:46;100970.00;;;9.20
12854;BMP180;6495;51.808;7.478;2023-11-21T08:57:30;100978.00;;;9.20
12854;BMP180;6495;51.808;7.478;2023-11-21T09:00:21;100972.00;;;9.20
12854;BMP180;6495;51.808;7.478;2023-11-21T09:03:28;100989.00;;;9.30
12854;BMP180;6495;51.808;7.478;2023-11-21T09:06:31;100997.00;;;9.30
12854;BMP180;6495;51.808;7.478;2023-11-21T09:09:00;100996.00;;;9.30
12854;BMP180;6495;51.808;7.478;2023-11-21T09:11:29;101009.00;;;9.20
12854;BMP180;6495;51.808;7.478;2023-11-21T09:14:01;100997.00;;;9.30
12854;BMP180;6495;51.808;7.478;2023-11-21T09:16:32;101014.00;;;9.20
12854;BMP180;6495;51.808;7.478;2023-11-21T09:19:01;101006.00;;;9.20
12854;BMP180;6495;51.808;7.478;2023-11-21T09:21:32;101010.00;;;9.30
12854;BMP180;6495;51.808;7.478;2023-11-21T09:24:04;101011.00;;;9.30
12854;BMP180;6495;51.808;7.478;2023-11-21T09:26:33;101012.00;;;9.30
12854;BMP180;6495;51.808;7.478;2023-11-21T09:29:01;101020.00;;;9.30
12854;BMP180;6495;51.808;7.478;2023-11-21T09:31:32;101013.00;;;9.30
12854;BMP180;6495;51.808;7.478;2023-11-21T09:34:00;101016.00;;;9.30
12854;BMP180;6495;51.808;7.478;2023-11-21T09:36:29;101020.00;;;9.30
12854;BMP180;6495;51.808;7.478;2023-11-21T09:38:58;101021.00;;;9.30
12854;BMP180;6495;51.808;7.478;2023-11-21T09:41:36;101032.00;;;9.30
12854;BMP180;6495;51.808;7.478;2023-11-21T09:44:13;101028.00;;;9.30
12854;BMP180;6495;51.808;7.478;2023-11-21T09:46:44;101049.00;;;9.30
12854;BMP180;6495;51.808;7.478;2023-11-21T09:49:22;101052.00;;;9.40
12854;BMP180;6495;51.808;7.478;2023-11-21T09:51:55;101049.00;;;9.40
12854;BMP180;6495;51.808;7.478;2023-11-21T09:54:25;101054.00;;;9.40
12854;BMP180;6495;51.808;7.478;2023-11-21T09:56:54;101059.00;;;9.40
12854;BMP180;6495;51.808;7.478;2023-11-21T09:59:22;101066.00;;;9.40
12854;BMP180;6495;51.808;7.478;2023-11-21T10:01:52;101064.00;;;9.40
12854;BMP180;6495;51.808;7.478;2023-11-21T10:04:21;101064.00;;;9.40
12854;BMP180;6495;51.808;7.478;2023-11-21T10:06:51;101066.00;;;9.50
12854;BMP180;6495;51.808;7.478;2023-11-21T10:09:23;101067.00;;;9.50
12854;BMP180;6495;51.808;7.478;2023-11-21T10:11:55;101066.00;;;9.50
12854;BMP180;6495;51.808;7.478;2023-11-21T10:14:26;101068.00;;;9.50
12854;BMP180;6495;51.808;7.478;2023-11-21T10:16:58;101070.00;;;9.50
12854;BMP180;6495;51.808;7.478;2023-11-21T10:19:28;101065.00;;;9.50
12854;BMP180;6495;51.808;7.478;2023-11-21T10:21:57;101071.00;;;9.60
12854;BMP180;6495;51.808;7.478;2023-11-21T10:24:29;101062.00;;;9.50
12854;BMP180;6495;51.808;7.478;2023-11-21T10:27:11;101071.00;;;9.60
12854;BMP180;6495;51.808;7.478;2023-11-21T10:29:40;101076.00;;;9.60
12854;BMP180;6495;51.808;7.478;2023-11-21T10:32:12;101077.00;;;9.60
12854;BMP180;6495;51.808;7.478;2023-11-21T10:34:41;101082.00;;;9.60
12854;BMP180;6495;51.808;7.478;2023-11-21T10:37:13;101088.00;;;9.60
12854;BMP180;6495;51.808;7.478;2023-11-21T10:39:44;101085.00;;;9.70
12854;BMP180;6495;51.808;7.478;2023-11-21T10:42:13;101080.00;;;9.70
12854;BMP180;6495;51.808;7.478;2023-11-21T10:44:42;101086.00;;;9.70
12854;BMP180;6495;51.808;7.478;2023-11-21T10:47:14;101102.00;;;9.70
12854;BMP180;6495;51.808;7.478;2023-11-21T10:49:42;101108.00;;;9.70
12854;BMP180;6495;51.808;7.478;2023-11-21T10:52:13;101095.00;;;9.70
12854;BMP180;6495;51.808;7.478;2023-11-21T10:54:45;101109.00;;;9.70
12854;BMP180;6495;51.808;7.478;2023-11-21T10:57:18;101104.00;;;9.80
12854;BMP180;6495;51.808;7.478;2023-11-21T10:59:49;101113.00;;;9.80
12854;BMP180;6495;51.808;7.478;2023-11-21T11:02:25;101113.00;;;9.80
12854;BMP180;6495;51.808;7.478;2023-11-21T11:04:58;101113.00;;;9.80
12854;BMP180;6495;51.808;7.478;2023-11-21T11:07:29;101110.00;;;9.80
12854;BMP180;6495;51.808;7.478;2023-11-21T11:10:01;101122.00;;;9.80
12854;BMP180;6495;51.808;7.478;2023-11-21T11:12:31;101111.00;;;9.80
12854;BMP180;6495;51.808;7.478;2023-11-21T11:15:03;101120.00;;;9.80
12854;BMP180;6495;51.808;7.478;2023-11-21T11:17:34;101110.00;;;9.80
12854;BMP180;6495;51.808;7.478;2023-11-21T11:20:12;101114.00;;;9.80
12854;BMP180;6495;51.808;7.478;2023-11-21T11:22:56;101118.00;;;9.90
12854;BMP180;6495;51.808;7.478;2023-11-21T11:25:47;101117.00;;;9.90
12854;BMP180;6495;51.808;7.478;2023-11-21T11:28:28;101108.00;;;9.90
12854;BMP180;6495;51.808;7.478;2023-11-21T11:31:08;101120.00;;;9.80
12854;BMP180;6495;51.808;7.478;2023-11-21T11:33:50;101130.00;;;9.90
12854;BMP180;6495;51.808;7.478;2023-11-21T11:36:29;101123.00;;;9.90
12854;BMP180;6495;51.808;7.478;2023-11-21T11:39:00;101128.00;;;9.80
12854;BMP180;6495;51.808;7.478;2023-11-21T11:41:32;101125.00;;;9.80
12854;BMP180;6495;51.808;7.478;2023-11-21T11:44:02;101128.00;;;9.90
12854;BMP180;6495;51.808;7.478;2023-11-21T11:46:41;101137.00;;;9.90
12854;BMP180;6495;51.808;7.478;2023-11-21T11:49:27;101132.00;;;9.90
12854;BMP180;6495;51.808;7.478;2023-11-21T11:52:38;101144.00;;;9.90
12854;BMP180;6495;51.808;7.478;2023-11-21T11:55:10;101141.00;;;9.90
12854;BMP180;6495;51.808;7.478;2023-11-21T11:57:41;101141.00;;;9.90
12854;BMP180;6495;51.808;7.478;2023-11-21T12:00:13;101147.00;;;9.90
12854;BMP180;6495;51.808;7.478;2023-11-21T12:02:47;101148.00;;;9.90
12854;BMP180;6495;51.808;7.478;2023-11-21T12:05:19;101155.00;;;9.90
12854;BMP180;6495;51.808;7.478;2023-11-21T12:07:52;101155.00;;;9.90
12854;BMP180;6495;51.808;7.478;2023-11-21T12:10:24;101159.00;;;9.90
12854;BMP180;6495;51.808;7.478;2023-11-21T12:12:55;101159.00;;;9.80
12854;BMP180;6495;51.808;7.478;2023-11-21T12:15:26;101165.00;;;9.90
12854;BMP180;6495;51.808;7.478;2023-11-21T12:17:57;101163.00;;;9.90
12854;BMP180;6495;51.808;7.478;2023-11-21T12:20:28;101163.00;;;9.90
12854;BMP180;6495;51.808;7.478;2023-11-21T12:22:59;101171.00;;;9.90
12854;BMP180;6495;51.808;7.478;2023-11-21T12:25:31;101171.00;;;9.90
12854;BMP180;6495;51.808;7.478;2023-11-21T12:28:02;101175.00;;;9.90
12854;BMP180;6495;51.808;7.478;2023-11-21T12:30:33;101184.00;;;9.80
12854;BMP180;6495;51.808;7.478;2023-11-21T12:33:04;101179.00;;;9.80
12854;BMP180;6495;51.808;7.478;2023-11-21T12:35:35;101181.00;;;9.80
12854;BMP180;6495;51.808;7.478;2023-11-21T12:38:05;101177.00;;;9.80
12854;BMP180;6495;51.808;7.478;2023-11-21T12:40:36;101192.00;;;9.80
12854;BMP180;6495;51.808;7.478;2023-11-21T12:43:07;101197.00;;;9.80
12854;BMP180;6495;51.808;7.478;2023-11-21T12:45:37;101191.00;;;9.80
12854;BMP180;6495;51.808;7.478;2023-11-21T12:48:06;101195.00;;;9.80
12854;BMP180;6495;51.808;7.478;2023-11-21T12:50:40;101205.00;;;9.80
12854;BMP180;6495;51.808;7.478;2023-11-21T12:53:11;101214.00;;;9.80
12854;BMP180;6495;51.808;7.478;2023-11-21T12:55:40;101214.00;;;9.80
12854;BMP180;6495;51.808;7.478;2023-11-21T12:58:11;101208.00;;;9.80
12854;BMP180;6495;51.808;7.478;2023-11-21T13:00:43;101217.00;;;9.80
12854;BMP180;6495;51.808;7.478;2023-11-21T13:03:17;101222.00;;;9.70
12854;BMP180;6495;51.808;7.478;2023-11-21T13:05:49;101229.00;;;9.70
12854;BMP180;6495;51.808;7.478;2023-11-21T13:08:21;101236.00;;;9.70
12854;BMP180;6495;51.808;7.478;2023-11-21T13:10:53;101243.00;;;9.60
12854;BMP180;6495;51.808;7.478;2023-11-21T13:13:24;101242.00;;;9.70
12854;BMP180;6495;51.808;7.478;2023-11-21T13:15:58;101248.00;;;9.70
12854;BMP180;6495;51.808;7.478;2023-11-21T13:18:29;101245.00;;;9.70
12854;BMP180;6495;51.808;7.478;2023-11-21T13:21:02;101247.00;;;9.70
12854;BMP180;6495;51.808;7.478;2023-11-21T13:23:35;101243.00;;;9.80
12854;BMP180;6495;51.808;7.478;2023-11-21T13:26:05;101247.00;;;9.80
12854;BMP180;6495;51.808;7.478;2023-11-21T13:28:35;101257.00;;;9.80
12854;BMP180;6495;51.808;7.478;2023-11-21T13:31:06;101260.00;;;9.80
12854;BMP180;6495;51.808;7.478;2023-11-21T13:33:49;101262.00;;;9.80
12854;BMP180;6495;51.808;7.478;2023-11-21T13:36:26;101258.00;;;9.70
12854;BMP180;6495;51.808;7.478;2023-11-21T13:38:58;101255.00;;;9.70
12854;BMP180;6495;51.808;7.478;2023-11-21T13:41:32;101263.00;;;9.70
12854;BMP180;6495;51.808;7.478;2023-11-21T13:44:01;101276.00;;;9.70
12854;BMP180;6495;51.808;7.478;2023-11-21T13:46:43;101278.00;;;9.70
12854;BMP180;6495;51.808;7.478;2023-11-21T13:49:13;101278.00;;;9.70
12854;BMP180;6495;51.808;7.478;2023-11-21T13:51:45;101288.00;;;9.70
12854;BMP180;6495;51.808;7.478;2023-11-21T13:54:18;101293.00;;;9.70
12854;BMP180;6495;51.808;7.478;2023-11-21T13:56:47;101293.00;;;9.60
12854;BMP180;6495;51.808;7.478;2023-11-21T13:59:19;101284.00;;;9.60
12854;BMP180;6495;51.808;7.478;2023-11-21T14:01:51;101298.00;;;9.60
12854;BMP180;6495;51.808;7.478;2023-11-21T14:04:28;101303.00;;;9.60
12854;BMP180;6495;51.808;7.478;2023-11-21T14:07:16;101296.00;;;9.60
12854;BMP180;6495;51.808;7.478;2023-11-21T14:09:53;101301.00;;;9.60
12854;BMP180;6495;51.808;7.478;2023-11-21T14:12:23;101296.00;;;9.60
12854;BMP180;6495;51.808;7.478;2023-11-21T14:14:51;101298.00;;;9.50
12854;BMP180;6495;51.808;7.478;2023-11-21T14:17:22;101313.00;;;9.50
12854;BMP180;6495;51.808;7.478;2023-11-21T14:19:51;101309.00;;;9.40
12854;BMP180;6495;51.808;7.478;2023-11-21T14:22:24;101308.00;;;9.40
12854;BMP180;6495;51.808;7.478;2023-11-21T14:24:53;101310.00;;;9.40
12854;BMP180;6495;51.808;7.478;2023-11-21T14:27:26;101325.00;;;9.40
12854;BMP180;6495;51.808;7.478;2023-11-21T14:29:56;101330.00;;;9.30
12854;BMP180;6495;51.808;7.478;2023-11-21T14:32:25;101333.00;;;9.30
12854;BMP180;6495;51.808;7.478;2023-11-21T14:34:54;101337.00;;;9.30
12854;BMP180;6495;51.808;7.478;2023-11-21T14:37:24;101341.00;;;9.30
12854;BMP180;6495;51.808;7.478;2023-11-21T14:39:52;101344.00;;;9.20
12854;BMP180;6495;51.808;7.478;2023-11-21T14:42:21;101360.00;;;9.20
12854;BMP180;6495;51.808;7.478;2023-11-21T14:44:53;101374.00;;;9.10
12854;BMP180;6495;51.808;7.478;2023-11-21T14:47:27;101375.00;;;9.10